»·PEaware :: N6931M KMYF-KMYF

N6931M :: KMYF-KMYF

FLIGHT INFORMATION

Flight Status: Arrived
Operator: Privately registered:
United States
More flights under this callsign
Pilot: Bill M. (30090)
Aircraft: CESSNA 172 SKYHAWK
(C172)
More flights by this aircraft type
Origin: KMYF Montgomery
United States
Destination: KMYF Montgomery
United States
More flights between these airports :: More routes between these airports
Route:
File this flight plan on PilotEdge
Remarks: VOR-A OKB, I24 CRQ, R28R MYF
Altitude:
(Current/Filed)
0ft
Speed:
(Current/Filed)
0kts
Departed: 12-Jan-21 07:09 PM
Arrived: 12-Jan-21 08:36 PM
Distance/Time
Traveled:
0nm/1:27
Distance/Time
To Go:
Arrived

Flight Plot

Page will automatically refresh every two minutes.


Map Options




Map Legend


Flown Route
Filed Route
Departure Airport
Arrival Airport
Navaid (VOR, NDB)
Fix

Horizontal Profiles

Position Reports

Time Latitude Longitude Heading Altitude Ground
Speed
12-Jan-21 18:50 32.811462 -117.138292 178 417ft 0kts
12-Jan-21 18:51 32.811462 -117.138292 178 417ft 0kts
12-Jan-21 18:52 32.811462 -117.138292 178 417ft 0kts
12-Jan-21 18:53 32.811766 -117.137893 23 417ft 7kts
12-Jan-21 18:54 32.812225 -117.135352 112 418ft 18kts
12-Jan-21 18:55 32.811860 -117.131334 60 422ft 4kts
12-Jan-21 18:56 32.811927 -117.131269 302 422ft 0kts
12-Jan-21 18:57 32.811927 -117.131269 302 422ft 0kts
12-Jan-21 18:58 32.811927 -117.131269 302 422ft 0kts
12-Jan-21 19:00 32.811927 -117.131269 302 422ft 0kts
12-Jan-21 19:01 32.811927 -117.131269 302 422ft 0kts
12-Jan-21 19:02 32.811927 -117.131269 302 422ft 0kts
12-Jan-21 19:03 32.811927 -117.131269 302 422ft 0kts
12-Jan-21 19:04 32.811927 -117.131269 302 422ft 0kts
12-Jan-21 19:05 32.811927 -117.131269 302 422ft 0kts
12-Jan-21 19:06 32.811927 -117.131269 302 422ft 0kts
12-Jan-21 19:07 32.812081 -117.131396 3 422ft 0kts
12-Jan-21 19:08 32.812081 -117.131396 3 422ft 0kts
12-Jan-21 19:09 32.815301 -117.136796 299 461ft 82kts
12-Jan-21 19:10 32.822070 -117.165236 275 1322ft 101kts
12-Jan-21 19:11 32.826133 -117.195742 285 2229ft 94kts
12-Jan-21 19:12 32.834313 -117.223877 292 3038ft 96kts
12-Jan-21 19:13 32.847562 -117.254705 333 3254ft 121kts
12-Jan-21 19:13 32.871313 -117.264466 343 3253ft 107kts
12-Jan-21 19:15 32.901692 -117.274981 343 3255ft 104kts
12-Jan-21 19:15 32.922897 -117.282400 343 3255ft 105kts
12-Jan-21 19:17 32.953350 -117.293153 343 3257ft 106kts
12-Jan-21 19:17 32.975681 -117.301091 343 3257ft 107kts
12-Jan-21 19:18 33.003772 -117.311112 343 3257ft 107kts
12-Jan-21 19:20 33.036710 -117.323021 338 3257ft 107kts
12-Jan-21 19:20 33.059560 -117.337225 332 3257ft 107kts
12-Jan-21 19:21 33.087931 -117.355256 332 2988ft 118kts
12-Jan-21 19:22 33.113515 -117.371507 332 2990ft 109kts
12-Jan-21 19:23 33.140036 -117.381537 345 2989ft 108kts
12-Jan-21 19:24 33.166187 -117.389540 345 2987ft 108kts
12-Jan-21 19:25 33.190700 -117.397043 345 2986ft 108kts
12-Jan-21 19:26 33.214973 -117.404475 345 2984ft 107kts
12-Jan-21 19:27 33.237439 -117.414501 337 2983ft 107kts
12-Jan-21 19:28 33.247853 -117.441909 282 2783ft 121kts
12-Jan-21 19:29 33.253712 -117.477633 279 2490ft 118kts
12-Jan-21 19:30 33.233572 -117.485275 118 2493ft 115kts
12-Jan-21 19:31 33.236233 -117.458455 72 2494ft 101kts
12-Jan-21 19:32 33.241684 -117.435035 72 2496ft 95kts
12-Jan-21 19:33 33.239054 -117.408060 127 2510ft 95kts
12-Jan-21 19:34 33.224298 -117.423069 282 2513ft 91kts
12-Jan-21 19:35 33.229500 -117.453562 299 2510ft 91kts
12-Jan-21 19:36 33.244384 -117.447332 94 2512ft 93kts
12-Jan-21 19:37 33.239553 -117.422700 102 2513ft 94kts
12-Jan-21 19:38 33.234002 -117.399884 108 2087ft 87kts
12-Jan-21 19:39 33.226603 -117.375184 108 1336ft 92kts
12-Jan-21 19:40 33.219861 -117.352089 108 1057ft 65kts
12-Jan-21 19:41 33.220638 -117.326537 43 1519ft 103kts
12-Jan-21 19:42 33.232744 -117.300122 94 2254ft 106kts
12-Jan-21 19:43 33.230634 -117.269228 92 2959ft 105kts
12-Jan-21 19:44 33.228633 -117.238224 92 3677ft 103kts
12-Jan-21 19:45 33.226481 -117.207672 92 4141ft 121kts
12-Jan-21 19:46 33.224014 -117.170570 92 4000ft 118kts
12-Jan-21 19:47 33.221716 -117.137305 92 4002ft 110kts
12-Jan-21 19:48 33.219441 -117.104664 92 4003ft 109kts
12-Jan-21 19:49 33.217140 -117.071479 92 4005ft 108kts
12-Jan-21 19:50 33.200685 -117.045983 161 3709ft 119kts
12-Jan-21 19:51 33.174261 -117.044584 212 3607ft 91kts
12-Jan-21 19:52 33.161528 -117.067320 257 3607ft 74kts
12-Jan-21 19:53 33.156423 -117.094781 261 3574ft 102kts
12-Jan-21 19:54 33.151763 -117.132451 265 3144ft 98kts
12-Jan-21 19:55 33.147898 -117.165271 263 2523ft 99kts
12-Jan-21 19:56 33.141034 -117.198731 255 1703ft 98kts
12-Jan-21 19:57 33.135482 -117.228920 260 1172ft 85kts
12-Jan-21 19:58 33.132332 -117.258935 264 615ft 88kts
12-Jan-21 19:59 33.126880 -117.294601 257 1285ft 105kts
12-Jan-21 20:00 33.119138 -117.332941 257 2316ft 102kts
12-Jan-21 20:01 33.110571 -117.373279 257 3029ft 115kts
12-Jan-21 20:02 33.089930 -117.401984 165 3179ft 114kts
12-Jan-21 20:03 33.059326 -117.391424 163 3892ft 111kts
12-Jan-21 20:04 33.029769 -117.381082 163 4593ft 110kts
12-Jan-21 20:05 33.004863 -117.365231 132 4997ft 121kts
12-Jan-21 20:06 32.984539 -117.340118 132 4991ft 124kts
12-Jan-21 20:07 32.964113 -117.314915 132 4990ft 125kts
12-Jan-21 20:08 32.938562 -117.296235 152 4989ft 126kts
12-Jan-21 20:09 32.912193 -117.280462 152 4988ft 127kts
12-Jan-21 20:10 32.886797 -117.265309 152 4985ft 120kts
12-Jan-21 20:11 32.860709 -117.249583 144 4983ft 119kts
12-Jan-21 20:12 32.840986 -117.226654 132 4985ft 118kts
12-Jan-21 20:13 32.822328 -117.204266 132 4985ft 118kts
12-Jan-21 20:14 32.803279 -117.181454 132 4986ft 119kts
12-Jan-21 20:15 32.786828 -117.155731 112 4988ft 117kts
12-Jan-21 20:16 32.774089 -117.124461 112 4991ft 118kts
12-Jan-21 20:17 32.761332 -117.092747 112 4990ft 120kts
12-Jan-21 20:18 32.748437 -117.060159 112 4989ft 121kts
12-Jan-21 20:19 32.735192 -117.026221 112 4988ft 121kts
12-Jan-21 20:20 32.721738 -116.991371 112 4987ft 121kts
12-Jan-21 20:21 32.708043 -116.955601 112 4985ft 121kts
12-Jan-21 20:22 32.695443 -116.922701 112 4760ft 111kts
12-Jan-21 20:23 32.691450 -116.891770 36 3985ft 101kts
12-Jan-21 20:24 32.709505 -116.900102 313 3791ft 87kts
12-Jan-21 20:25 32.723527 -116.918023 313 3793ft 86kts
12-Jan-21 20:26 32.736056 -116.938390 293 3666ft 93kts
12-Jan-21 20:27 32.744650 -116.963008 297 3238ft 95kts
12-Jan-21 20:28 32.755048 -116.986993 301 2796ft 91kts
12-Jan-21 20:29 32.765174 -117.010117 295 2540ft 85kts
12-Jan-21 20:30 32.773821 -117.032179 300 2457ft 76kts
12-Jan-21 20:31 32.782197 -117.053825 298 2049ft 86kts
12-Jan-21 20:32 32.791155 -117.077537 304 1486ft 88kts
12-Jan-21 20:33 32.800479 -117.100072 301 1103ft 83kts
12-Jan-21 20:34 32.809470 -117.122670 298 642ft 93kts
12-Jan-21 20:35 32.816126 -117.139393 284 420ft 7kts
12-Jan-21 20:36 32.815126 -117.141950 203 417ft 7kts
12-Jan-21 20:37 32.814958 -117.142031 206 416ft 0kts
12-Jan-21 20:38 32.813843 -117.144325 158 413ft 23kts
12-Jan-21 20:39 32.811402 -117.142200 87 413ft 4kts
12-Jan-21 20:40 32.810811 -117.141395 91 414ft 9kts

Navigation Log

Ident Type
Flight plan parsing failed, navigation log unavailable